sensor_id;sensor_type;location;lat;lon;timestamp;temperature;humidity
20829;DHT22;10575;50.124;8.582;2023-07-29T00:00:36;19.80;99.90
20829;DHT22;10575;50.124;8.582;2023-07-29T00:03:01;19.80;99.90
20829;DHT22;10575;50.124;8.582;2023-07-29T00:05:27;19.80;99.90
20829;DHT22;10575;50.124;8.582;2023-07-29T00:07:52;19.70;99.90
20829;DHT22;10575;50.124;8.582;2023-07-29T00:10:18;19.70;99.90
20829;DHT22;10575;50.124;8.582;2023-07-29T00:12:43;19.80;99.90
20829;DHT22;10575;50.124;8.582;2023-07-29T00:15:09;19.90;99.90
20829;DHT22;10575;50.124;8.582;2023-07-29T00:17:35;19.90;99.90
20829;DHT22;10575;50.124;8.582;2023-07-29T00:20:00;19.90;99.90
20829;DHT22;10575;50.124;8.582;2023-07-29T00:22:26;19.90;99.90
20829;DHT22;10575;50.124;8.582;2023-07-29T00:24:52;19.90;99.90
20829;DHT22;10575;50.124;8.582;2023-07-29T00:27:20;19.90;99.90
20829;DHT22;10575;50.124;8.582;2023-07-29T00:29:46;19.90;99.90
20829;DHT22;10575;50.124;8.582;2023-07-29T00:32:12;20.00;99.90
20829;DHT22;10575;50.124;8.582;2023-07-29T00:34:38;20.00;99.90
20829;DHT22;10575;50.124;8.582;2023-07-29T00:37:03;20.10;99.90
20829;DHT22;10575;50.124;8.582;2023-07-29T00:39:31;20.00;99.90
20829;DHT22;10575;50.124;8.582;2023-07-29T00:41:57;20.10;99.90
20829;DHT22;10575;50.124;8.582;2023-07-29T00:44:22;20.00;99.90
20829;DHT22;10575;50.124;8.582;2023-07-29T00:46:52;20.00;99.90
20829;DHT22;10575;50.124;8.582;2023-07-29T00:49:19;20.10;99.90
20829;DHT22;10575;50.124;8.582;2023-07-29T00:51:46;20.10;99.90
20829;DHT22;10575;50.124;8.582;2023-07-29T00:54:12;20.00;99.90
20829;DHT22;10575;50.124;8.582;2023-07-29T00:56:38;20.00;99.90
20829;DHT22;10575;50.124;8.582;2023-07-29T00:59:03;20.00;99.90
20829;DHT22;10575;50.124;8.582;2023-07-29T01:01:30;20.00;99.90
20829;DHT22;10575;50.124;8.582;2023-07-29T01:03:55;20.00;99.90
20829;DHT22;10575;50.124;8.582;2023-07-29T01:06:34;20.00;99.90
20829;DHT22;10575;50.124;8.582;2023-07-29T01:09:11;19.90;99.90
20829;DHT22;10575;50.124;8.582;2023-07-29T01:22:21;19.90;99.90
20829;DHT22;10575;50.124;8.582;2023-07-29T01:24:48;19.90;99.90
20829;DHT22;10575;50.124;8.582;2023-07-29T01:27:13;20.00;99.90
20829;DHT22;10575;50.124;8.582;2023-07-29T01:29:39;20.00;99.90
20829;DHT22;10575;50.124;8.582;2023-07-29T01:32:11;20.10;99.90
20829;DHT22;10575;50.124;8.582;2023-07-29T01:34:56;20.10;99.90
20829;DHT22;10575;50.124;8.582;2023-07-29T01:37:26;20.10;99.90
20829;DHT22;10575;50.124;8.582;2023-07-29T01:39:57;20.10;99.90
20829;DHT22;10575;50.124;8.582;2023-07-29T01:42:24;20.10;99.90
20829;DHT22;10575;50.124;8.582;2023-07-29T01:44:50;20.10;99.90
20829;DHT22;10575;50.124;8.582;2023-07-29T01:47:16;20.10;99.90
20829;DHT22;10575;50.124;8.582;2023-07-29T01:49:42;20.10;99.90
20829;DHT22;10575;50.124;8.582;2023-07-29T01:54:32;20.10;99.90
20829;DHT22;10575;50.124;8.582;2023-07-29T01:56:58;19.90;99.90
20829;DHT22;10575;50.124;8.582;2023-07-29T01:59:23;19.90;99.90
20829;DHT22;10575;50.124;8.582;2023-07-29T02:01:49;19.90;99.90
20829;DHT22;10575;50.124;8.582;2023-07-29T02:04:14;20.00;99.90
20829;DHT22;10575;50.124;8.582;2023-07-29T02:06:40;19.90;99.90
20829;DHT22;10575;50.124;8.582;2023-07-29T02:09:05;20.00;99.90
20829;DHT22;10575;50.124;8.582;2023-07-29T02:11:31;20.00;99.90
20829;DHT22;10575;50.124;8.582;2023-07-29T02:13:57;19.90;99.90
20829;DHT22;10575;50.124;8.582;2023-07-29T02:16:23;19.90;99.90
20829;DHT22;10575;50.124;8.582;2023-07-29T02:18:54;20.00;99.90
20829;DHT22;10575;50.124;8.582;2023-07-29T02:21:20;20.00;99.90
20829;DHT22;10575;50.124;8.582;2023-07-29T04:46:02;20.10;99.90
20829;DHT22;10575;50.124;8.582;2023-07-29T04:48:28;20.00;99.90
20829;DHT22;10575;50.124;8.582;2023-07-29T04:53:29;20.00;99.90
20829;DHT22;10575;50.124;8.582;2023-07-29T07:18:15;20.20;99.90
20829;DHT22;10575;50.124;8.582;2023-07-29T07:20:40;20.30;99.90
20829;DHT22;10575;50.124;8.582;2023-07-29T07:23:06;20.30;99.90
20829;DHT22;10575;50.124;8.582;2023-07-29T07:25:36;20.40;99.90
20829;DHT22;10575;50.124;8.582;2023-07-29T07:28:01;20.50;99.90
20829;DHT22;10575;50.124;8.582;2023-07-29T07:30:27;20.50;99.90
20829;DHT22;10575;50.124;8.582;2023-07-29T07:32:55;20.50;99.90
20829;DHT22;10575;50.124;8.582;2023-07-29T07:35:20;20.50;99.90
20829;DHT22;10575;50.124;8.582;2023-07-29T07:37:46;20.60;99.90
20829;DHT22;10575;50.124;8.582;2023-07-29T07:40:11;20.60;99.90
20829;DHT22;10575;50.124;8.582;2023-07-29T07:42:37;20.70;99.90
20829;DHT22;10575;50.124;8.582;2023-07-29T07:45:03;20.70;99.90
20829;DHT22;10575;50.124;8.582;2023-07-29T07:47:28;20.80;99.90
20829;DHT22;10575;50.124;8.582;2023-07-29T07:49:54;20.80;99.90
20829;DHT22;10575;50.124;8.582;2023-07-29T07:52:19;20.80;99.90
20829;DHT22;10575;50.124;8.582;2023-07-29T07:54:47;20.80;99.90
20829;DHT22;10575;50.124;8.582;2023-07-29T07:57:16;20.80;99.90
20829;DHT22;10575;50.124;8.582;2023-07-29T07:59:42;20.90;99.90
20829;DHT22;10575;50.124;8.582;2023-07-29T08:02:07;21.00;99.90
20829;DHT22;10575;50.124;8.582;2023-07-29T08:04:33;21.00;99.90
20829;DHT22;10575;50.124;8.582;2023-07-29T08:06:58;21.10;99.90
20829;DHT22;10575;50.124;8.582;2023-07-29T08:09:24;21.10;99.90
20829;DHT22;10575;50.124;8.582;2023-07-29T08:11:49;21.20;99.90
20829;DHT22;10575;50.124;8.582;2023-07-29T08:14:15;21.40;99.90
20829;DHT22;10575;50.124;8.582;2023-07-29T08:16:40;21.70;99.90
20829;DHT22;10575;50.124;8.582;2023-07-29T08:19:06;22.00;99.90
20829;DHT22;10575;50.124;8.582;2023-07-29T08:21:34;22.50;99.90
20829;DHT22;10575;50.124;8.582;2023-07-29T08:24:00;23.10;99.90
20829;DHT22;10575;50.124;8.582;2023-07-29T08:26:25;23.20;99.90
20829;DHT22;10575;50.124;8.582;2023-07-29T08:28:51;23.30;99.90
20829;DHT22;10575;50.124;8.582;2023-07-29T08:31:17;23.50;99.90
20829;DHT22;10575;50.124;8.582;2023-07-29T08:33:42;24.00;99.90
20829;DHT22;10575;50.124;8.582;2023-07-29T08:36:08;26.80;99.90
20829;DHT22;10575;50.124;8.582;2023-07-29T08:38:33;30.00;99.90
20829;DHT22;10575;50.124;8.582;2023-07-29T08:43:31;30.80;99.90
20829;DHT22;10575;50.124;8.582;2023-07-29T08:45:58;29.80;99.90
20829;DHT22;10575;50.124;8.582;2023-07-29T08:48:32;28.90;99.90
20829;DHT22;10575;50.124;8.582;2023-07-29T08:50:59;28.30;99.90
20829;DHT22;10575;50.124;8.582;2023-07-29T08:53:26;28.10;99.90
20829;DHT22;10575;50.124;8.582;2023-07-29T08:55:53;28.40;99.90
20829;DHT22;10575;50.124;8.582;2023-07-29T08:58:21;30.30;99.90
20829;DHT22;10575;50.124;8.582;2023-07-29T09:00:48;30.70;99.90
20829;DHT22;10575;50.124;8.582;2023-07-29T09:03:14;30.20;99.90
20829;DHT22;10575;50.124;8.582;2023-07-29T09:05:43;30.30;99.90
20829;DHT22;10575;50.124;8.582;2023-07-29T09:08:09;30.50;99.90
20829;DHT22;10575;50.124;8.582;2023-07-29T09:10:36;30.30;99.90
20829;DHT22;10575;50.124;8.582;2023-07-29T09:13:02;29.90;99.90
20829;DHT22;10575;50.124;8.582;2023-07-29T09:15:33;29.40;99.90
20829;DHT22;10575;50.124;8.582;2023-07-29T09:18:00;29.60;99.90
20829;DHT22;10575;50.124;8.582;2023-07-29T09:20:33;31.20;99.90
20829;DHT22;10575;50.124;8.582;2023-07-29T09:22:59;33.60;99.90
20829;DHT22;10575;50.124;8.582;2023-07-29T09:25:29;36.90;99.90
20829;DHT22;10575;50.124;8.582;2023-07-29T09:28:02;37.20;99.90
20829;DHT22;10575;50.124;8.582;2023-07-29T09:30:32;36.00;99.90
20829;DHT22;10575;50.124;8.582;2023-07-29T09:32:58;35.00;99.90
20829;DHT22;10575;50.124;8.582;2023-07-29T09:35:27;35.20;99.90
20829;DHT22;10575;50.124;8.582;2023-07-29T09:37:53;34.70;99.90
20829;DHT22;10575;50.124;8.582;2023-07-29T09:40:18;33.00;99.90
20829;DHT22;10575;50.124;8.582;2023-07-29T09:42:51;31.30;99.90
20829;DHT22;10575;50.124;8.582;2023-07-29T09:45:36;30.20;99.90
20829;DHT22;10575;50.124;8.582;2023-07-29T09:48:03;29.80;99.90
20829;DHT22;10575;50.124;8.582;2023-07-29T09:50:30;29.60;99.90
20829;DHT22;10575;50.124;8.582;2023-07-29T09:52:57;29.60;99.90
20829;DHT22;10575;50.124;8.582;2023-07-29T09:55:26;29.50;99.90
20829;DHT22;10575;50.124;8.582;2023-07-29T09:57:59;29.10;99.90
20829;DHT22;10575;50.124;8.582;2023-07-29T10:00:32;28.40;99.90
20829;DHT22;10575;50.124;8.582;2023-07-29T10:02:58;27.70;99.90
20829;DHT22;10575;50.124;8.582;2023-07-29T10:05:28;27.50;99.90
20829;DHT22;10575;50.124;8.582;2023-07-29T10:07:54;27.50;99.90
20829;DHT22;10575;50.124;8.582;2023-07-29T10:10:20;27.60;99.90
20829;DHT22;10575;50.124;8.582;2023-07-29T10:12:46;27.70;99.90
20829;DHT22;10575;50.124;8.582;2023-07-29T10:15:12;27.40;99.90
20829;DHT22;10575;50.124;8.582;2023-07-29T10:17:39;27.70;99.90
20829;DHT22;10575;50.124;8.582;2023-07-29T10:20:07;28.10;99.90
20829;DHT22;10575;50.124;8.582;2023-07-29T10:22:37;28.40;99.90
20829;DHT22;10575;50.124;8.582;2023-07-29T10:25:06;28.40;99.90
20829;DHT22;10575;50.124;8.582;2023-07-29T10:27:47;28.30;99.90
20829;DHT22;10575;50.124;8.582;2023-07-29T10:30:13;28.10;99.90
20829;DHT22;10575;50.124;8.582;2023-07-29T10:32:42;28.10;99.90
20829;DHT22;10575;50.124;8.582;2023-07-29T10:35:15;28.10;99.90
20829;DHT22;10575;50.124;8.582;2023-07-29T10:37:41;27.80;99.90
20829;DHT22;10575;50.124;8.582;2023-07-29T10:40:09;27.70;99.90
20829;DHT22;10575;50.124;8.582;2023-07-29T10:42:37;27.50;99.90
20829;DHT22;10575;50.124;8.582;2023-07-29T10:45:20;27.10;99.90
20829;DHT22;10575;50.124;8.582;2023-07-29T10:47:47;27.10;99.90
20829;DHT22;10575;50.124;8.582;2023-07-29T10:50:21;27.20;99.90
20829;DHT22;10575;50.124;8.582;2023-07-29T10:52:53;27.40;99.90
20829;DHT22;10575;50.124;8.582;2023-07-29T10:55:35;27.60;99.90
20829;DHT22;10575;50.124;8.582;2023-07-29T10:58:13;27.40;99.90
20829;DHT22;10575;50.124;8.582;2023-07-29T11:00:41;27.30;99.90
20829;DHT22;10575;50.124;8.582;2023-07-29T11:03:08;27.50;99.90
20829;DHT22;10575;50.124;8.582;2023-07-29T11:05:48;27.40;99.90
20829;DHT22;10575;50.124;8.582;2023-07-29T11:11:07;26.10;99.90
20829;DHT22;10575;50.124;8.582;2023-07-29T11:13:35;26.00;99.90
20829;DHT22;10575;50.124;8.582;2023-07-29T11:16:02;25.90;99.90
20829;DHT22;10575;50.124;8.582;2023-07-29T11:18:33;25.70;99.90
20829;DHT22;10575;50.124;8.582;2023-07-29T11:21:00;25.80;99.90
20829;DHT22;10575;50.124;8.582;2023-07-29T11:23:33;26.00;99.90
20829;DHT22;10575;50.124;8.582;2023-07-29T11:26:00;26.20;99.90
20829;DHT22;10575;50.124;8.582;2023-07-29T11:28:27;26.60;99.90
20829;DHT22;10575;50.124;8.582;2023-07-29T11:30:57;26.60;99.90
20829;DHT22;10575;50.124;8.582;2023-07-29T11:33:26;26.40;99.90
20829;DHT22;10575;50.124;8.582;2023-07-29T11:35:54;26.40;99.90
20829;DHT22;10575;50.124;8.582;2023-07-29T11:38:21;26.40;99.90
20829;DHT22;10575;50.124;8.582;2023-07-29T11:40:58;26.10;99.90
20829;DHT22;10575;50.124;8.582;2023-07-29T11:43:24;26.00;99.90
20829;DHT22;10575;50.124;8.582;2023-07-29T11:45:51;25.90;99.90
20829;DHT22;10575;50.124;8.582;2023-07-29T11:48:17;25.90;99.90
20829;DHT22;10575;50.124;8.582;2023-07-29T11:50:43;25.80;99.90
20829;DHT22;10575;50.124;8.582;2023-07-29T11:53:08;25.70;99.90
20829;DHT22;10575;50.124;8.582;2023-07-29T11:55:35;25.90;99.90
20829;DHT22;10575;50.124;8.582;2023-07-29T11:58:01;26.00;99.90
20829;DHT22;10575;50.124;8.582;2023-07-29T12:00:27;26.10;99.90
20829;DHT22;10575;50.124;8.582;2023-07-29T12:02:53;26.10;99.90
20829;DHT22;10575;50.124;8.582;2023-07-29T12:05:21;26.30;99.90
20829;DHT22;10575;50.124;8.582;2023-07-29T12:07:47;26.30;99.90
20829;DHT22;10575;50.124;8.582;2023-07-29T12:10:15;26.40;99.90
20829;DHT22;10575;50.124;8.582;2023-07-29T12:12:48;26.50;99.90
20829;DHT22;10575;50.124;8.582;2023-07-29T12:15:23;26.50;99.90
20829;DHT22;10575;50.124;8.582;2023-07-29T12:17:53;26.40;99.90
20829;DHT22;10575;50.124;8.582;2023-07-29T12:20:21;26.40;99.90
20829;DHT22;10575;50.124;8.582;2023-07-29T12:22:55;26.30;99.90
20829;DHT22;10575;50.124;8.582;2023-07-29T12:25:21;26.10;99.90
20829;DHT22;10575;50.124;8.582;2023-07-29T12:27:47;26.10;99.90
20829;DHT22;10575;50.124;8.582;2023-07-29T12:30:13;26.30;99.90
20829;DHT22;10575;50.124;8.582;2023-07-29T12:32:45;26.60;99.90
20829;DHT22;10575;50.124;8.582;2023-07-29T12:35:11;26.60;99.90
20829;DHT22;10575;50.124;8.582;2023-07-29T12:37:36;26.50;99.90
20829;DHT22;10575;50.124;8.582;2023-07-29T12:40:04;26.40;99.90
20829;DHT22;10575;50.124;8.582;2023-07-29T12:42:30;26.50;99.90
20829;DHT22;10575;50.124;8.582;2023-07-29T12:44:55;26.70;99.90
20829;DHT22;10575;50.124;8.582;2023-07-29T12:47:21;26.70;99.90
20829;DHT22;10575;50.124;8.582;2023-07-29T12:49:46;26.50;99.90
20829;DHT22;10575;50.124;8.582;2023-07-29T12:52:12;26.40;99.90
20829;DHT22;10575;50.124;8.582;2023-07-29T12:54:37;26.20;99.90
20829;DHT22;10575;50.124;8.582;2023-07-29T12:57:03;26.20;99.90
20829;DHT22;10575;50.124;8.582;2023-07-29T12:59:28;26.20;99.90
20829;DHT22;10575;50.124;8.582;2023-07-29T13:01:54;26.20;99.90
20829;DHT22;10575;50.124;8.582;2023-07-29T13:04:19;26.10;99.90
20829;DHT22;10575;50.124;8.582;2023-07-29T13:06:45;25.90;99.90
20829;DHT22;10575;50.124;8.582;2023-07-29T13:09:10;25.80;99.90
20829;DHT22;10575;50.124;8.582;2023-07-29T13:11:36;25.70;99.90
20829;DHT22;10575;50.124;8.582;2023-07-29T13:14:02;25.60;99.90
20829;DHT22;10575;50.124;8.582;2023-07-29T13:16:28;25.50;99.90
20829;DHT22;10575;50.124;8.582;2023-07-29T13:18:54;25.60;99.90
20829;DHT22;10575;50.124;8.582;2023-07-29T13:21:20;25.50;99.90
20829;DHT22;10575;50.124;8.582;2023-07-29T13:23:45;25.70;99.90
20829;DHT22;10575;50.124;8.582;2023-07-29T13:26:11;26.00;99.90
20829;DHT22;10575;50.124;8.582;2023-07-29T13:28:36;26.20;99.90
20829;DHT22;10575;50.124;8.582;2023-07-29T13:31:02;26.10;99.90
20829;DHT22;10575;50.124;8.582;2023-07-29T13:33:28;26.20;99.90
20829;DHT22;10575;50.124;8.582;2023-07-29T13:35:54;26.30;99.90
20829;DHT22;10575;50.124;8.582;2023-07-29T13:38:19;26.10;99.90
20829;DHT22;10575;50.124;8.582;2023-07-29T13:40:47;26.00;99.90
20829;DHT22;10575;50.124;8.582;2023-07-29T13:43:16;26.00;99.90
20829;DHT22;10575;50.124;8.582;2023-07-29T13:45:41;26.10;99.90
20829;DHT22;10575;50.124;8.582;2023-07-29T13:48:07;26.30;99.90
20829;DHT22;10575;50.124;8.582;2023-07-29T13:50:32;26.30;99.90
20829;DHT22;10575;50.124;8.582;2023-07-29T13:52:58;26.30;99.90
20829;DHT22;10575;50.124;8.582;2023-07-29T13:55:23;26.20;99.90
20829;DHT22;10575;50.124;8.582;2023-07-29T13:57:49;26.00;99.90
20829;DHT22;10575;50.124;8.582;2023-07-29T14:00:14;26.10;99.90
20829;DHT22;10575;50.124;8.582;2023-07-29T14:02:41;26.20;99.90
20829;DHT22;10575;50.124;8.582;2023-07-29T14:05:08;26.40;99.90
20829;DHT22;10575;50.124;8.582;2023-07-29T14:07:33;26.60;99.90
20829;DHT22;10575;50.124;8.582;2023-07-29T14:09:59;26.60;99.90
20829;DHT22;10575;50.124;8.582;2023-07-29T14:12:24;26.50;99.90
20829;DHT22;10575;50.124;8.582;2023-07-29T14:14:50;26.30;99.90
20829;DHT22;10575;50.124;8.582;2023-07-29T14:17:15;26.10;99.90
20829;DHT22;10575;50.124;8.582;2023-07-29T14:19:41;25.90;99.90
20829;DHT22;10575;50.124;8.582;2023-07-29T14:22:06;25.90;99.90
20829;DHT22;10575;50.124;8.582;2023-07-29T14:24:32;25.90;99.90
20829;DHT22;10575;50.124;8.582;2023-07-29T14:26:57;25.80;99.90
20829;DHT22;10575;50.124;8.582;2023-07-29T14:29:23;25.80;99.90
20829;DHT22;10575;50.124;8.582;2023-07-29T14:31:48;25.90;99.90
20829;DHT22;10575;50.124;8.582;2023-07-29T14:34:14;25.90;99.90
20829;DHT22;10575;50.124;8.582;2023-07-29T14:36:39;26.00;99.90
20829;DHT22;10575;50.124;8.582;2023-07-29T14:39:05;26.00;99.90
20829;DHT22;10575;50.124;8.582;2023-07-29T14:41:31;25.90;99.90
20829;DHT22;10575;50.124;8.582;2023-07-29T14:43:56;26.00;99.90
20829;DHT22;10575;50.124;8.582;2023-07-29T14:46:22;25.90;99.90
20829;DHT22;10575;50.124;8.582;2023-07-29T14:48:48;25.90;99.90
20829;DHT22;10575;50.124;8.582;2023-07-29T14:51:14;25.90;99.90
20829;DHT22;10575;50.124;8.582;2023-07-29T14:53:39;25.90;99.90
20829;DHT22;10575;50.124;8.582;2023-07-29T14:56:05;25.90;99.90
20829;DHT22;10575;50.124;8.582;2023-07-29T14:58:30;25.90;99.90
20829;DHT22;10575;50.124;8.582;2023-07-29T15:00:56;25.80;99.90
20829;DHT22;10575;50.124;8.582;2023-07-29T15:03:23;25.70;99.90
20829;DHT22;10575;50.124;8.582;2023-07-29T15:05:49;25.70;99.90
20829;DHT22;10575;50.124;8.582;2023-07-29T15:08:14;25.80;99.90
20829;DHT22;10575;50.124;8.582;2023-07-29T15:10:40;25.80;99.90
20829;DHT22;10575;50.124;8.582;2023-07-29T15:13:05;25.80;99.90
20829;DHT22;10575;50.124;8.582;2023-07-29T15:15:31;25.90;99.90
20829;DHT22;10575;50.124;8.582;2023-07-29T15:17:57;25.90;99.90
20829;DHT22;10575;50.124;8.582;2023-07-29T15:20:22;25.90;99.90
20829;DHT22;10575;50.124;8.582;2023-07-29T15:22:48;25.90;99.90
20829;DHT22;10575;50.124;8.582;2023-07-29T15:25:13;25.90;99.90
20829;DHT22;10575;50.124;8.582;2023-07-29T15:27:39;25.80;99.90
20829;DHT22;10575;50.124;8.582;2023-07-29T15:30:06;25.70;99.90
20829;DHT22;10575;50.124;8.582;2023-07-29T15:32:32;25.60;99.90
20829;DHT22;10575;50.124;8.582;2023-07-29T15:34:57;25.60;99.90
20829;DHT22;10575;50.124;8.582;2023-07-29T15:37:25;25.60;99.90
20829;DHT22;10575;50.124;8.582;2023-07-29T15:39:51;25.80;99.90
20829;DHT22;10575;50.124;8.582;2023-07-29T15:42:17;25.60;99.90
20829;DHT22;10575;50.124;8.582;2023-07-29T15:44:42;25.50;99.90
20829;DHT22;10575;50.124;8.582;2023-07-29T15:47:08;25.80;99.90
20829;DHT22;10575;50.124;8.582;2023-07-29T15:49:33;25.80;99.90
20829;DHT22;10575;50.124;8.582;2023-07-29T15:51:59;25.90;99.90
20829;DHT22;10575;50.124;8.582;2023-07-29T15:54:24;25.80;99.90
20829;DHT22;10575;50.124;8.582;2023-07-29T15:56:50;25.60;99.90
20829;DHT22;10575;50.124;8.582;2023-07-29T15:59:15;25.50;99.90
20829;DHT22;10575;50.124;8.582;2023-07-29T16:01:41;25.60;99.90
20829;DHT22;10575;50.124;8.582;2023-07-29T16:04:06;25.60;99.90
20829;DHT22;10575;50.124;8.582;2023-07-29T16:06:32;25.60;99.90
20829;DHT22;10575;50.124;8.582;2023-07-29T16:08:57;25.70;99.90
20829;DHT22;10575;50.124;8.582;2023-07-29T16:11:27;25.70;99.90
20829;DHT22;10575;50.124;8.582;2023-07-29T16:13:52;25.80;99.90
20829;DHT22;10575;50.124;8.582;2023-07-29T16:16:18;25.70;99.90
20829;DHT22;10575;50.124;8.582;2023-07-29T16:18:44;25.70;99.90
20829;DHT22;10575;50.124;8.582;2023-07-29T16:21:09;25.60;99.90
20829;DHT22;10575;50.124;8.582;2023-07-29T16:23:36;25.60;99.90
20829;DHT22;10575;50.124;8.582;2023-07-29T16:26:01;25.50;99.90
20829;DHT22;10575;50.124;8.582;2023-07-29T16:28:27;25.50;99.90
20829;DHT22;10575;50.124;8.582;2023-07-29T16:30:52;25.60;99.90
20829;DHT22;10575;50.124;8.582;2023-07-29T16:33:18;25.70;99.90
20829;DHT22;10575;50.124;8.582;2023-07-29T16:35:44;25.80;99.90
20829;DHT22;10575;50.124;8.582;2023-07-29T16:38:09;25.90;99.90
20829;DHT22;10575;50.124;8.582;2023-07-29T16:40:35;25.90;99.90
20829;DHT22;10575;50.124;8.582;2023-07-29T16:43:01;25.80;99.90
20829;DHT22;10575;50.124;8.582;2023-07-29T16:45:26;25.60;99.90
20829;DHT22;10575;50.124;8.582;2023-07-29T16:47:56;25.40;99.90
20829;DHT22;10575;50.124;8.582;2023-07-29T16:50:22;25.20;99.90
20829;DHT22;10575;50.124;8.582;2023-07-29T16:52:47;25.00;99.90
20829;DHT22;10575;50.124;8.582;2023-07-29T16:55:19;24.90;99.90
20829;DHT22;10575;50.124;8.582;2023-07-29T16:57:45;25.00;99.90
20829;DHT22;10575;50.124;8.582;2023-07-29T17:00:11;25.20;99.90
20829;DHT22;10575;50.124;8.582;2023-07-29T17:02:37;25.40;99.90
20829;DHT22;10575;50.124;8.582;2023-07-29T17:05:02;25.50;99.90
20829;DHT22;10575;50.124;8.582;2023-07-29T17:07:30;25.50;99.90
20829;DHT22;10575;50.124;8.582;2023-07-29T17:09:55;25.50;99.90
20829;DHT22;10575;50.124;8.582;2023-07-29T17:12:21;25.50;99.90
20829;DHT22;10575;50.124;8.582;2023-07-29T17:14:47;25.40;99.90
20829;DHT22;10575;50.124;8.582;2023-07-29T17:17:13;25.20;99.90
20829;DHT22;10575;50.124;8.582;2023-07-29T17:19:38;25.20;99.90
20829;DHT22;10575;50.124;8.582;2023-07-29T17:22:04;25.10;99.90
20829;DHT22;10575;50.124;8.582;2023-07-29T17:24:30;24.90;99.90
20829;DHT22;10575;50.124;8.582;2023-07-29T17:26:55;24.80;99.90
20829;DHT22;10575;50.124;8.582;2023-07-29T17:29:21;24.60;99.90
20829;DHT22;10575;50.124;8.582;2023-07-29T17:31:46;24.60;99.90
20829;DHT22;10575;50.124;8.582;2023-07-29T17:34:12;24.50;99.90
20829;DHT22;10575;50.124;8.582;2023-07-29T17:36:38;24.50;99.90
20829;DHT22;10575;50.124;8.582;2023-07-29T17:39:05;24.50;99.90
20829;DHT22;10575;50.124;8.582;2023-07-29T17:41:34;24.50;99.90
20829;DHT22;10575;50.124;8.582;2023-07-29T17:44:00;24.50;99.90
20829;DHT22;10575;50.124;8.582;2023-07-29T17:46:25;24.40;99.90
20829;DHT22;10575;50.124;8.582;2023-07-29T17:48:51;24.30;99.90
20829;DHT22;10575;50.124;8.582;2023-07-29T17:51:16;24.30;99.90
20829;DHT22;10575;50.124;8.582;2023-07-29T17:53:42;24.30;99.90
20829;DHT22;10575;50.124;8.582;2023-07-29T17:56:08;24.20;99.90
20829;DHT22;10575;50.124;8.582;2023-07-29T17:58:37;24.30;99.90
20829;DHT22;10575;50.124;8.582;2023-07-29T18:01:03;24.30;99.90
20829;DHT22;10575;50.124;8.582;2023-07-29T18:03:29;24.20;99.90
20829;DHT22;10575;50.124;8.582;2023-07-29T18:05:54;24.10;99.90
20829;DHT22;10575;50.124;8.582;2023-07-29T18:08:20;24.10;99.90
20829;DHT22;10575;50.124;8.582;2023-07-29T18:10:45;24.00;99.90
20829;DHT22;10575;50.124;8.582;2023-07-29T18:13:11;24.00;99.90
20829;DHT22;10575;50.124;8.582;2023-07-29T18:15:37;23.90;99.90
20829;DHT22;10575;50.124;8.582;2023-07-29T18:18:02;23.90;99.90
20829;DHT22;10575;50.124;8.582;2023-07-29T18:20:29;23.90;99.90
20829;DHT22;10575;50.124;8.582;2023-07-29T18:22:54;23.80;99.90
20829;DHT22;10575;50.124;8.582;2023-07-29T18:25:26;23.80;99.90
20829;DHT22;10575;50.124;8.582;2023-07-29T18:27:51;23.80;99.90
20829;DHT22;10575;50.124;8.582;2023-07-29T18:30:17;23.70;99.90
20829;DHT22;10575;50.124;8.582;2023-07-29T18:32:42;23.70;99.90
20829;DHT22;10575;50.124;8.582;2023-07-29T18:35:08;23.70;99.90
20829;DHT22;10575;50.124;8.582;2023-07-29T18:37:35;23.70;99.90
20829;DHT22;10575;50.124;8.582;2023-07-29T18:40:01;23.60;99.90
20829;DHT22;10575;50.124;8.582;2023-07-29T18:42:28;23.50;99.90
20829;DHT22;10575;50.124;8.582;2023-07-29T18:44:53;23.50;99.90
20829;DHT22;10575;50.124;8.582;2023-07-29T18:47:19;23.40;99.90
20829;DHT22;10575;50.124;8.582;2023-07-29T18:49:45;23.40;99.90
20829;DHT22;10575;50.124;8.582;2023-07-29T18:52:10;23.30;99.90
20829;DHT22;10575;50.124;8.582;2023-07-29T18:54:36;23.30;99.90
20829;DHT22;10575;50.124;8.582;2023-07-29T18:57:03;23.20;99.90
20829;DHT22;10575;50.124;8.582;2023-07-29T18:59:29;23.10;99.90
20829;DHT22;10575;50.124;8.582;2023-07-29T19:01:54;23.00;99.90
20829;DHT22;10575;50.124;8.582;2023-07-29T19:04:20;22.90;99.90
20829;DHT22;10575;50.124;8.582;2023-07-29T19:06:45;22.80;99.90
20829;DHT22;10575;50.124;8.582;2023-07-29T19:09:11;22.70;99.90
20829;DHT22;10575;50.124;8.582;2023-07-29T19:11:37;22.70;99.90
20829;DHT22;10575;50.124;8.582;2023-07-29T19:14:02;22.60;99.90
20829;DHT22;10575;50.124;8.582;2023-07-29T19:16:28;22.50;99.90
20829;DHT22;10575;50.124;8.582;2023-07-29T19:18:54;22.50;99.90
20829;DHT22;10575;50.124;8.582;2023-07-29T19:21:19;22.50;99.90
20829;DHT22;10575;50.124;8.582;2023-07-29T19:23:46;22.50;99.90
20829;DHT22;10575;50.124;8.582;2023-07-29T19:26:11;22.40;99.90
20829;DHT22;10575;50.124;8.582;2023-07-29T19:28:37;22.40;99.90
20829;DHT22;10575;50.124;8.582;2023-07-29T19:31:03;22.40;99.90
20829;DHT22;10575;50.124;8.582;2023-07-29T19:33:30;22.30;99.90
20829;DHT22;10575;50.124;8.582;2023-07-29T19:35:56;22.30;99.90
20829;DHT22;10575;50.124;8.582;2023-07-29T19:38:25;22.20;99.90
20829;DHT22;10575;50.124;8.582;2023-07-29T19:40:50;22.20;99.90
20829;DHT22;10575;50.124;8.582;2023-07-29T19:43:16;22.20;99.90
20829;DHT22;10575;50.124;8.582;2023-07-29T19:45:48;22.20;99.90
20829;DHT22;10575;50.124;8.582;2023-07-29T19:48:14;22.20;99.90
20829;DHT22;10575;50.124;8.582;2023-07-29T19:50:39;22.10;99.90
20829;DHT22;10575;50.124;8.582;2023-07-29T19:53:05;22.10;99.90
20829;DHT22;10575;50.124;8.582;2023-07-29T19:55:31;22.00;99.90
20829;DHT22;10575;50.124;8.582;2023-07-29T19:57:56;22.00;99.90
20829;DHT22;10575;50.124;8.582;2023-07-29T20:00:22;21.90;99.90
20829;DHT22;10575;50.124;8.582;2023-07-29T20:02:51;21.90;99.90
20829;DHT22;10575;50.124;8.582;2023-07-29T20:05:16;22.00;99.90
20829;DHT22;10575;50.124;8.582;2023-07-29T20:07:43;22.00;99.90
20829;DHT22;10575;50.124;8.582;2023-07-29T20:10:11;22.00;99.90
20829;DHT22;10575;50.124;8.582;2023-07-29T20:12:36;22.10;99.90
20829;DHT22;10575;50.124;8.582;2023-07-29T20:15:02;22.10;99.90
20829;DHT22;10575;50.124;8.582;2023-07-29T20:17:28;22.10;99.90
20829;DHT22;10575;50.124;8.582;2023-07-29T20:19:54;22.00;99.90
20829;DHT22;10575;50.124;8.582;2023-07-29T20:22:19;22.00;99.90
20829;DHT22;10575;50.124;8.582;2023-07-29T20:24:48;22.10;99.90
20829;DHT22;10575;50.124;8.582;2023-07-29T20:27:13;22.10;99.90
20829;DHT22;10575;50.124;8.582;2023-07-29T20:29:39;22.10;99.90
20829;DHT22;10575;50.124;8.582;2023-07-29T20:32:04;22.10;99.90